sensor_id;sensor_type;location;lat;lon;timestamp;temperature;humidity
9668;DHT22;4872;48.316;10.650;2023-06-22T04:08:30;19.20;99.90
9668;DHT22;4872;48.316;10.650;2023-06-22T04:10:57;19.30;99.90
9668;DHT22;4872;48.316;10.650;2023-06-22T04:13:24;19.30;99.90
9668;DHT22;4872;48.316;10.650;2023-06-22T04:15:50;19.30;99.90
9668;DHT22;4872;48.316;10.650;2023-06-22T04:18:17;19.30;99.90
9668;DHT22;4872;48.316;10.650;2023-06-22T04:20:44;19.40;99.90
9668;DHT22;4872;48.316;10.650;2023-06-22T04:23:12;19.40;99.90
9668;DHT22;4872;48.316;10.650;2023-06-22T04:25:40;19.30;99.90
9668;DHT22;4872;48.316;10.650;2023-06-22T04:28:07;19.30;99.90
9668;DHT22;4872;48.316;10.650;2023-06-22T04:30:38;19.50;99.90
9668;DHT22;4872;48.316;10.650;2023-06-22T04:33:11;19.50;99.90
9668;DHT22;4872;48.316;10.650;2023-06-22T04:35:38;19.50;99.90
9668;DHT22;4872;48.316;10.650;2023-06-22T04:38:06;19.50;99.90
9668;DHT22;4872;48.316;10.650;2023-06-22T04:40:33;19.50;99.90
9668;DHT22;4872;48.316;10.650;2023-06-22T04:43:01;19.70;99.90
9668;DHT22;4872;48.316;10.650;2023-06-22T04:45:29;19.70;99.90
9668;DHT22;4872;48.316;10.650;2023-06-22T04:47:56;19.70;99.90
9668;DHT22;4872;48.316;10.650;2023-06-22T04:50:22;19.90;99.90
9668;DHT22;4872;48.316;10.650;2023-06-22T04:52:50;19.90;99.90
9668;DHT22;4872;48.316;10.650;2023-06-22T04:55:18;19.90;99.90
9668;DHT22;4872;48.316;10.650;2023-06-22T04:57:45;20.00;99.90
9668;DHT22;4872;48.316;10.650;2023-06-22T05:00:16;19.90;99.90
9668;DHT22;4872;48.316;10.650;2023-06-22T05:02:44;19.90;99.90
9668;DHT22;4872;48.316;10.650;2023-06-22T05:05:11;20.00;99.90
9668;DHT22;4872;48.316;10.650;2023-06-22T05:07:41;20.00;99.90
9668;DHT22;4872;48.316;10.650;2023-06-22T05:10:09;20.00;99.90
9668;DHT22;4872;48.316;10.650;2023-06-22T05:12:36;20.00;99.90
9668;DHT22;4872;48.316;10.650;2023-06-22T05:15:04;20.20;99.90
9668;DHT22;4872;48.316;10.650;2023-06-22T05:17:32;20.20;99.90
9668;DHT22;4872;48.316;10.650;2023-06-22T05:19:59;20.60;99.90
9668;DHT22;4872;48.316;10.650;2023-06-22T05:22:25;20.40;99.90
9668;DHT22;4872;48.316;10.650;2023-06-22T05:24:52;20.40;99.90
9668;DHT22;4872;48.316;10.650;2023-06-22T05:27:19;20.50;99.90
9668;DHT22;4872;48.316;10.650;2023-06-22T05:29:45;20.50;99.90
9668;DHT22;4872;48.316;10.650;2023-06-22T05:32:12;20.80;99.90
9668;DHT22;4872;48.316;10.650;2023-06-22T05:34:40;20.70;99.90
9668;DHT22;4872;48.316;10.650;2023-06-22T05:37:07;20.80;99.90
9668;DHT22;4872;48.316;10.650;2023-06-22T05:39:35;21.00;99.90
9668;DHT22;4872;48.316;10.650;2023-06-22T05:42:04;20.90;99.90
9668;DHT22;4872;48.316;10.650;2023-06-22T05:44:31;21.00;99.90
9668;DHT22;4872;48.316;10.650;2023-06-22T05:46:59;21.20;99.90
9668;DHT22;4872;48.316;10.650;2023-06-22T05:49:26;21.20;99.90
9668;DHT22;4872;48.316;10.650;2023-06-22T05:51:56;21.20;99.90
9668;DHT22;4872;48.316;10.650;2023-06-22T05:54:23;21.40;99.90
9668;DHT22;4872;48.316;10.650;2023-06-22T05:56:49;21.40;99.90
9668;DHT22;4872;48.316;10.650;2023-06-22T05:59:17;21.60;99.90
9668;DHT22;4872;48.316;10.650;2023-06-22T06:01:44;21.60;99.90
9668;DHT22;4872;48.316;10.650;2023-06-22T06:04:15;21.50;99.90
9668;DHT22;4872;48.316;10.650;2023-06-22T06:06:41;21.60;99.90
9668;DHT22;4872;48.316;10.650;2023-06-22T06:09:10;21.70;99.90
9668;DHT22;4872;48.316;10.650;2023-06-22T06:11:37;21.70;99.90
9668;DHT22;4872;48.316;10.650;2023-06-22T06:14:04;21.70;99.90
9668;DHT22;4872;48.316;10.650;2023-06-22T06:16:30;21.80;99.90
9668;DHT22;4872;48.316;10.650;2023-06-22T06:18:57;21.90;99.90
9668;DHT22;4872;48.316;10.650;2023-06-22T06:21:24;21.90;99.90
9668;DHT22;4872;48.316;10.650;2023-06-22T06:23:51;22.10;99.90
9668;DHT22;4872;48.316;10.650;2023-06-22T06:26:20;22.20;99.90
9668;DHT22;4872;48.316;10.650;2023-06-22T06:28:56;22.30;99.90
9668;DHT22;4872;48.316;10.650;2023-06-22T06:31:23;22.40;99.90
9668;DHT22;4872;48.316;10.650;2023-06-22T06:33:54;22.50;99.90
9668;DHT22;4872;48.316;10.650;2023-06-22T06:36:20;22.60;99.90
9668;DHT22;4872;48.316;10.650;2023-06-22T06:38:47;22.60;99.90
9668;DHT22;4872;48.316;10.650;2023-06-22T06:41:15;22.70;99.90
9668;DHT22;4872;48.316;10.650;2023-06-22T06:43:43;22.70;99.90
9668;DHT22;4872;48.316;10.650;2023-06-22T06:46:10;22.70;99.90
9668;DHT22;4872;48.316;10.650;2023-06-22T06:48:37;22.80;99.90
9668;DHT22;4872;48.316;10.650;2023-06-22T06:51:05;22.80;99.90
9668;DHT22;4872;48.316;10.650;2023-06-22T06:53:35;22.90;99.90
9668;DHT22;4872;48.316;10.650;2023-06-22T06:56:02;22.90;99.90
9668;DHT22;4872;48.316;10.650;2023-06-22T06:58:30;22.90;99.80
9668;DHT22;4872;48.316;10.650;2023-06-22T07:00:58;23.00;99.90
9668;DHT22;4872;48.316;10.650;2023-06-22T07:03:25;23.10;99.80
9668;DHT22;4872;48.316;10.650;2023-06-22T07:05:52;22.90;99.60
9668;DHT22;4872;48.316;10.650;2023-06-22T07:08:18;23.10;99.60
9668;DHT22;4872;48.316;10.650;2023-06-22T07:10:45;23.20;99.70
9668;DHT22;4872;48.316;10.650;2023-06-22T07:13:12;23.30;99.80
9668;DHT22;4872;48.316;10.650;2023-06-22T07:15:38;23.30;99.90
9668;DHT22;4872;48.316;10.650;2023-06-22T07:18:07;23.30;99.80
9668;DHT22;4872;48.316;10.650;2023-06-22T07:20:33;23.50;99.40
9668;DHT22;4872;48.316;10.650;2023-06-22T07:23:01;23.60;99.50
9668;DHT22;4872;48.316;10.650;2023-06-22T07:25:27;23.70;99.20
9668;DHT22;4872;48.316;10.650;2023-06-22T07:27:59;23.70;99.20
9668;DHT22;4872;48.316;10.650;2023-06-22T07:30:27;23.60;99.00
9668;DHT22;4872;48.316;10.650;2023-06-22T07:32:53;23.80;98.80
9668;DHT22;4872;48.316;10.650;2023-06-22T07:35:22;23.80;98.60
9668;DHT22;4872;48.316;10.650;2023-06-22T07:37:48;23.90;98.60
9668;DHT22;4872;48.316;10.650;2023-06-22T07:40:15;24.00;98.80
9668;DHT22;4872;48.316;10.650;2023-06-22T07:42:42;24.10;98.40
9668;DHT22;4872;48.316;10.650;2023-06-22T07:45:09;24.20;97.90
9668;DHT22;4872;48.316;10.650;2023-06-22T07:47:35;24.20;98.00
9668;DHT22;4872;48.316;10.650;2023-06-22T07:50:03;24.30;97.90
9668;DHT22;4872;48.316;10.650;2023-06-22T07:52:32;24.40;97.80
9668;DHT22;4872;48.316;10.650;2023-06-22T07:54:59;24.50;97.40
9668;DHT22;4872;48.316;10.650;2023-06-22T07:57:26;24.50;97.40
9668;DHT22;4872;48.316;10.650;2023-06-22T07:59:58;24.70;97.20
9668;DHT22;4872;48.316;10.650;2023-06-22T08:02:25;24.80;97.30
9668;DHT22;4872;48.316;10.650;2023-06-22T08:04:52;24.90;96.90
9668;DHT22;4872;48.316;10.650;2023-06-22T08:07:18;25.00;96.70
9668;DHT22;4872;48.316;10.650;2023-06-22T08:09:48;25.20;97.10
9668;DHT22;4872;48.316;10.650;2023-06-22T08:12:15;25.20;96.90
9668;DHT22;4872;48.316;10.650;2023-06-22T08:14:43;25.30;96.70
9668;DHT22;4872;48.316;10.650;2023-06-22T08:17:11;25.50;96.70
9668;DHT22;4872;48.316;10.650;2023-06-22T08:19:40;25.60;96.10
9668;DHT22;4872;48.316;10.650;2023-06-22T08:22:06;25.70;95.70
9668;DHT22;4872;48.316;10.650;2023-06-22T08:24:33;25.70;95.60
9668;DHT22;4872;48.316;10.650;2023-06-22T08:27:01;25.80;96.00
9668;DHT22;4872;48.316;10.650;2023-06-22T08:29:28;25.90;96.20
9668;DHT22;4872;48.316;10.650;2023-06-22T08:31:54;25.90;95.90
9668;DHT22;4872;48.316;10.650;2023-06-22T08:34:21;26.00;96.00
9668;DHT22;4872;48.316;10.650;2023-06-22T08:36:48;26.10;95.90
9668;DHT22;4872;48.316;10.650;2023-06-22T08:39:17;26.10;95.40
9668;DHT22;4872;48.316;10.650;2023-06-22T08:41:43;26.20;95.50
9668;DHT22;4872;48.316;10.650;2023-06-22T08:44:11;26.20;94.90
9668;DHT22;4872;48.316;10.650;2023-06-22T08:46:38;26.20;94.00
9668;DHT22;4872;48.316;10.650;2023-06-22T08:49:06;26.20;94.10
9668;DHT22;4872;48.316;10.650;2023-06-22T08:51:33;26.40;94.20
9668;DHT22;4872;48.316;10.650;2023-06-22T08:54:00;26.50;94.70
9668;DHT22;4872;48.316;10.650;2023-06-22T08:56:27;26.50;94.80
9668;DHT22;4872;48.316;10.650;2023-06-22T08:58:54;26.50;94.50
9668;DHT22;4872;48.316;10.650;2023-06-22T09:01:22;26.60;94.60
9668;DHT22;4872;48.316;10.650;2023-06-22T09:03:49;26.70;94.50
9668;DHT22;4872;48.316;10.650;2023-06-22T09:06:20;26.80;94.40
9668;DHT22;4872;48.316;10.650;2023-06-22T09:08:47;26.90;94.50
9668;DHT22;4872;48.316;10.650;2023-06-22T09:11:14;26.90;94.70
9668;DHT22;4872;48.316;10.650;2023-06-22T09:13:41;26.90;93.50
9668;DHT22;4872;48.316;10.650;2023-06-22T09:16:08;27.00;93.30
9668;DHT22;4872;48.316;10.650;2023-06-22T09:18:36;27.00;93.60
9668;DHT22;4872;48.316;10.650;2023-06-22T09:21:03;27.10;93.90
9668;DHT22;4872;48.316;10.650;2023-06-22T09:23:29;27.20;93.70
9668;DHT22;4872;48.316;10.650;2023-06-22T09:25:56;27.20;93.80
9668;DHT22;4872;48.316;10.650;2023-06-22T09:28:23;27.30;93.70
9668;DHT22;4872;48.316;10.650;2023-06-22T09:30:50;27.30;94.20
9668;DHT22;4872;48.316;10.650;2023-06-22T09:33:22;27.40;94.10
9668;DHT22;4872;48.316;10.650;2023-06-22T09:35:50;27.40;93.80
9668;DHT22;4872;48.316;10.650;2023-06-22T09:38:17;27.40;93.30
9668;DHT22;4872;48.316;10.650;2023-06-22T09:40:44;27.60;93.30
9668;DHT22;4872;48.316;10.650;2023-06-22T09:43:11;27.60;93.80
9668;DHT22;4872;48.316;10.650;2023-06-22T09:45:37;27.70;93.40
9668;DHT22;4872;48.316;10.650;2023-06-22T09:48:04;27.90;93.50
9668;DHT22;4872;48.316;10.650;2023-06-22T09:50:31;27.90;93.20
9668;DHT22;4872;48.316;10.650;2023-06-22T09:52:59;28.10;93.50
9668;DHT22;4872;48.316;10.650;2023-06-22T09:55:26;28.20;93.20
9668;DHT22;4872;48.316;10.650;2023-06-22T09:57:55;28.30;92.60
9668;DHT22;4872;48.316;10.650;2023-06-22T10:00:22;28.40;92.90
9668;DHT22;4872;48.316;10.650;2023-06-22T10:02:49;28.40;92.10
9668;DHT22;4872;48.316;10.650;2023-06-22T10:05:16;28.30;90.70
9668;DHT22;4872;48.316;10.650;2023-06-22T10:07:43;28.30;90.80
9668;DHT22;4872;48.316;10.650;2023-06-22T10:10:11;28.20;91.40
9668;DHT22;4872;48.316;10.650;2023-06-22T10:12:41;28.20;91.60
9668;DHT22;4872;48.316;10.650;2023-06-22T10:15:10;28.10;91.90
9668;DHT22;4872;48.316;10.650;2023-06-22T10:17:36;28.20;91.90
9668;DHT22;4872;48.316;10.650;2023-06-22T10:20:04;28.20;92.00
9668;DHT22;4872;48.316;10.650;2023-06-22T10:22:36;28.20;91.80
9668;DHT22;4872;48.316;10.650;2023-06-22T10:25:03;28.20;92.00
9668;DHT22;4872;48.316;10.650;2023-06-22T10:27:31;28.20;92.40
9668;DHT22;4872;48.316;10.650;2023-06-22T10:29:58;28.30;91.80
9668;DHT22;4872;48.316;10.650;2023-06-22T10:32:25;28.30;90.80
9668;DHT22;4872;48.316;10.650;2023-06-22T10:34:53;28.50;91.50
9668;DHT22;4872;48.316;10.650;2023-06-22T10:37:20;28.60;91.30
9668;DHT22;4872;48.316;10.650;2023-06-22T10:39:47;28.60;90.00
9668;DHT22;4872;48.316;10.650;2023-06-22T10:42:13;28.70;90.10
9668;DHT22;4872;48.316;10.650;2023-06-22T10:44:41;28.80;89.80
9668;DHT22;4872;48.316;10.650;2023-06-22T10:47:09;28.90;90.00
9668;DHT22;4872;48.316;10.650;2023-06-22T10:49:37;29.00;90.20
9668;DHT22;4872;48.316;10.650;2023-06-22T10:52:05;29.10;90.80
9668;DHT22;4872;48.316;10.650;2023-06-22T10:54:32;29.10;89.50
9668;DHT22;4872;48.316;10.650;2023-06-22T10:56:59;29.20;89.00
9668;DHT22;4872;48.316;10.650;2023-06-22T10:59:26;29.30;90.20
9668;DHT22;4872;48.316;10.650;2023-06-22T11:01:55;29.30;90.20
9668;DHT22;4872;48.316;10.650;2023-06-22T11:04:23;29.40;90.30
9668;DHT22;4872;48.316;10.650;2023-06-22T11:06:50;29.40;88.50
9668;DHT22;4872;48.316;10.650;2023-06-22T11:09:17;29.50;88.00
9668;DHT22;4872;48.316;10.650;2023-06-22T11:11:46;29.40;86.40
9668;DHT22;4872;48.316;10.650;2023-06-22T11:14:13;29.30;88.10
9668;DHT22;4872;48.316;10.650;2023-06-22T11:16:40;29.40;87.40
9668;DHT22;4872;48.316;10.650;2023-06-22T11:19:08;29.50;88.90
9668;DHT22;4872;48.316;10.650;2023-06-22T11:21:35;29.40;85.80
9668;DHT22;4872;48.316;10.650;2023-06-22T11:24:02;29.40;88.10
9668;DHT22;4872;48.316;10.650;2023-06-22T11:26:29;29.40;86.70
9668;DHT22;4872;48.316;10.650;2023-06-22T11:28:57;29.50;86.40
9668;DHT22;4872;48.316;10.650;2023-06-22T11:31:24;29.70;88.30
9668;DHT22;4872;48.316;10.650;2023-06-22T11:33:51;30.00;90.00
9668;DHT22;4872;48.316;10.650;2023-06-22T11:36:19;30.20;88.30
9668;DHT22;4872;48.316;10.650;2023-06-22T11:38:46;30.30;87.40
9668;DHT22;4872;48.316;10.650;2023-06-22T11:41:13;30.40;85.60
9668;DHT22;4872;48.316;10.650;2023-06-22T11:43:39;30.10;82.20
9668;DHT22;4872;48.316;10.650;2023-06-22T11:46:06;30.20;83.80
9668;DHT22;4872;48.316;10.650;2023-06-22T11:48:33;30.10;83.20
9668;DHT22;4872;48.316;10.650;2023-06-22T11:51:00;30.30;84.90
9668;DHT22;4872;48.316;10.650;2023-06-22T11:53:30;30.40;86.20
9668;DHT22;4872;48.316;10.650;2023-06-22T11:55:56;30.50;86.20
9668;DHT22;4872;48.316;10.650;2023-06-22T11:58:23;30.70;85.10
9668;DHT22;4872;48.316;10.650;2023-06-22T12:00:50;30.80;84.90
9668;DHT22;4872;48.316;10.650;2023-06-22T12:03:17;31.00;85.30
9668;DHT22;4872;48.316;10.650;2023-06-22T12:05:44;31.10;84.20
9668;DHT22;4872;48.316;10.650;2023-06-22T12:08:11;31.20;86.40
9668;DHT22;4872;48.316;10.650;2023-06-22T12:10:40;31.20;84.80
9668;DHT22;4872;48.316;10.650;2023-06-22T12:13:07;31.30;84.00
9668;DHT22;4872;48.316;10.650;2023-06-22T12:15:34;31.30;83.60
9668;DHT22;4872;48.316;10.650;2023-06-22T12:18:01;31.40;84.70
9668;DHT22;4872;48.316;10.650;2023-06-22T12:20:28;31.40;81.20
9668;DHT22;4872;48.316;10.650;2023-06-22T12:22:54;31.40;81.60
9668;DHT22;4872;48.316;10.650;2023-06-22T12:25:23;31.50;82.80
9668;DHT22;4872;48.316;10.650;2023-06-22T12:27:51;31.70;82.00
9668;DHT22;4872;48.316;10.650;2023-06-22T12:30:19;31.80;80.90
9668;DHT22;4872;48.316;10.650;2023-06-22T12:32:46;31.90;76.70
9668;DHT22;4872;48.316;10.650;2023-06-22T12:35:12;31.90;77.10
9668;DHT22;4872;48.316;10.650;2023-06-22T12:37:40;31.80;74.70
9668;DHT22;4872;48.316;10.650;2023-06-22T12:40:08;31.70;74.80
9668;DHT22;4872;48.316;10.650;2023-06-22T12:42:35;31.60;73.20
9668;DHT22;4872;48.316;10.650;2023-06-22T12:45:04;31.70;73.20
9668;DHT22;4872;48.316;10.650;2023-06-22T12:47:31;31.80;73.10
9668;DHT22;4872;48.316;10.650;2023-06-22T12:49:58;31.90;72.50
9668;DHT22;4872;48.316;10.650;2023-06-22T12:52:25;31.90;72.30
9668;DHT22;4872;48.316;10.650;2023-06-22T12:54:51;31.90;73.20
9668;DHT22;4872;48.316;10.650;2023-06-22T12:57:19;31.70;72.30
9668;DHT22;4872;48.316;10.650;2023-06-22T12:59:46;31.80;74.10
9668;DHT22;4872;48.316;10.650;2023-06-22T13:02:14;32.10;75.30
9668;DHT22;4872;48.316;10.650;2023-06-22T13:04:41;32.30;74.80
9668;DHT22;4872;48.316;10.650;2023-06-22T13:07:08;32.40;73.70
9668;DHT22;4872;48.316;10.650;2023-06-22T13:09:36;32.60;73.60
9668;DHT22;4872;48.316;10.650;2023-06-22T13:12:03;32.80;73.10
9668;DHT22;4872;48.316;10.650;2023-06-22T13:14:30;32.40;71.60
9668;DHT22;4872;48.316;10.650;2023-06-22T13:16:57;32.60;70.90
9668;DHT22;4872;48.316;10.650;2023-06-22T13:19:25;32.90;71.80
9668;DHT22;4872;48.316;10.650;2023-06-22T13:21:54;33.10;70.30
9668;DHT22;4872;48.316;10.650;2023-06-22T13:24:21;32.90;68.60
9668;DHT22;4872;48.316;10.650;2023-06-22T13:26:47;33.20;70.90
9668;DHT22;4872;48.316;10.650;2023-06-22T13:29:14;33.50;69.40
9668;DHT22;4872;48.316;10.650;2023-06-22T13:31:41;33.70;69.30
9668;DHT22;4872;48.316;10.650;2023-06-22T13:34:07;33.70;68.30
9668;DHT22;4872;48.316;10.650;2023-06-22T13:36:35;33.70;68.80
9668;DHT22;4872;48.316;10.650;2023-06-22T13:39:02;33.60;68.80
9668;DHT22;4872;48.316;10.650;2023-06-22T13:41:29;33.60;68.80
9668;DHT22;4872;48.316;10.650;2023-06-22T13:43:56;33.30;69.00
9668;DHT22;4872;48.316;10.650;2023-06-22T13:46:23;33.10;69.90
9668;DHT22;4872;48.316;10.650;2023-06-22T13:48:49;32.70;68.50
9668;DHT22;4872;48.316;10.650;2023-06-22T13:51:16;32.60;69.80
9668;DHT22;4872;48.316;10.650;2023-06-22T13:53:44;32.50;71.10
9668;DHT22;4872;48.316;10.650;2023-06-22T13:56:11;32.40;70.20
9668;DHT22;4872;48.316;10.650;2023-06-22T13:58:38;32.30;68.00
9668;DHT22;4872;48.316;10.650;2023-06-22T14:01:04;32.20;68.20
9668;DHT22;4872;48.316;10.650;2023-06-22T14:03:33;32.20;68.60
9668;DHT22;4872;48.316;10.650;2023-06-22T14:06:05;32.20;70.40
9668;DHT22;4872;48.316;10.650;2023-06-22T14:08:32;32.20;70.30
9668;DHT22;4872;48.316;10.650;2023-06-22T14:11:00;32.20;69.00
9668;DHT22;4872;48.316;10.650;2023-06-22T14:13:26;32.20;67.10
9668;DHT22;4872;48.316;10.650;2023-06-22T14:15:53;32.20;68.40
9668;DHT22;4872;48.316;10.650;2023-06-22T14:18:20;32.20;69.80
9668;DHT22;4872;48.316;10.650;2023-06-22T14:20:48;32.40;69.40
9668;DHT22;4872;48.316;10.650;2023-06-22T14:23:14;32.60;70.20
9668;DHT22;4872;48.316;10.650;2023-06-22T14:25:41;32.80;68.30
9668;DHT22;4872;48.316;10.650;2023-06-22T14:28:09;33.10;69.80
9668;DHT22;4872;48.316;10.650;2023-06-22T14:30:36;33.50;68.50
9668;DHT22;4872;48.316;10.650;2023-06-22T14:33:03;33.70;67.70
9668;DHT22;4872;48.316;10.650;2023-06-22T14:35:29;34.10;65.90
9668;DHT22;4872;48.316;10.650;2023-06-22T14:37:56;34.40;66.10
9668;DHT22;4872;48.316;10.650;2023-06-22T14:40:23;34.80;64.80
9668;DHT22;4872;48.316;10.650;2023-06-22T14:42:50;35.10;62.80
9668;DHT22;4872;48.316;10.650;2023-06-22T14:45:18;35.00;63.70
9668;DHT22;4872;48.316;10.650;2023-06-22T14:47:44;34.80;60.40
9668;DHT22;4872;48.316;10.650;2023-06-22T14:50:11;34.40;63.90
9668;DHT22;4872;48.316;10.650;2023-06-22T14:52:38;34.10;63.80
9668;DHT22;4872;48.316;10.650;2023-06-22T14:55:05;34.40;64.30
9668;DHT22;4872;48.316;10.650;2023-06-22T14:57:32;34.70;63.90
9668;DHT22;4872;48.316;10.650;2023-06-22T14:59:59;35.00;65.90
9668;DHT22;4872;48.316;10.650;2023-06-22T15:02:28;35.30;64.40
9668;DHT22;4872;48.316;10.650;2023-06-22T15:04:55;34.50;63.30
9668;DHT22;4872;48.316;10.650;2023-06-22T15:07:22;34.00;62.50
9668;DHT22;4872;48.316;10.650;2023-06-22T15:09:48;33.70;63.00
9668;DHT22;4872;48.316;10.650;2023-06-22T15:12:15;33.30;63.90
9668;DHT22;4872;48.316;10.650;2023-06-22T15:14:42;32.90;64.20
9668;DHT22;4872;48.316;10.650;2023-06-22T15:17:09;33.40;65.90
9668;DHT22;4872;48.316;10.650;2023-06-22T15:19:37;34.10;67.30
9668;DHT22;4872;48.316;10.650;2023-06-22T15:22:05;34.80;65.10
9668;DHT22;4872;48.316;10.650;2023-06-22T15:24:32;35.10;64.00
9668;DHT22;4872;48.316;10.650;2023-06-22T15:26:59;35.70;64.20
9668;DHT22;4872;48.316;10.650;2023-06-22T15:29:26;36.10;63.30
9668;DHT22;4872;48.316;10.650;2023-06-22T15:31:53;36.00;63.40
9668;DHT22;4872;48.316;10.650;2023-06-22T15:34:20;35.90;61.30
9668;DHT22;4872;48.316;10.650;2023-06-22T15:36:48;36.00;61.70
9668;DHT22;4872;48.316;10.650;2023-06-22T15:39:14;36.00;62.20
9668;DHT22;4872;48.316;10.650;2023-06-22T15:41:42;36.10;61.50
9668;DHT22;4872;48.316;10.650;2023-06-22T15:44:09;35.90;61.80
9668;DHT22;4872;48.316;10.650;2023-06-22T15:46:35;36.00;62.30
9668;DHT22;4872;48.316;10.650;2023-06-22T15:49:02;35.80;60.80
9668;DHT22;4872;48.316;10.650;2023-06-22T15:51:29;35.60;60.10
9668;DHT22;4872;48.316;10.650;2023-06-22T15:53:57;34.30;59.90
9668;DHT22;4872;48.316;10.650;2023-06-22T15:56:24;33.70;62.80
9668;DHT22;4872;48.316;10.650;2023-06-22T15:58:50;33.30;63.40
9668;DHT22;4872;48.316;10.650;2023-06-22T16:01:17;32.90;62.50
9668;DHT22;4872;48.316;10.650;2023-06-22T16:03:44;33.00;63.60
9668;DHT22;4872;48.316;10.650;2023-06-22T16:06:10;32.80;64.30
9668;DHT22;4872;48.316;10.650;2023-06-22T16:08:37;32.70;63.30
9668;DHT22;4872;48.316;10.650;2023-06-22T16:11:05;32.70;63.10
9668;DHT22;4872;48.316;10.650;2023-06-22T16:13:32;32.30;62.50
9668;DHT22;4872;48.316;10.650;2023-06-22T16:15:59;31.80;64.60
9668;DHT22;4872;48.316;10.650;2023-06-22T16:18:26;31.30;63.30
9668;DHT22;4872;48.316;10.650;2023-06-22T16:20:53;31.40;63.50
9668;DHT22;4872;48.316;10.650;2023-06-22T16:23:19;31.40;64.60
9668;DHT22;4872;48.316;10.650;2023-06-22T16:25:46;31.40;66.30
9668;DHT22;4872;48.316;10.650;2023-06-22T16:28:14;30.80;68.70
9668;DHT22;4872;48.316;10.650;2023-06-22T16:30:41;30.50;70.10
9668;DHT22;4872;48.316;10.650;2023-06-22T16:33:08;30.20;71.60
9668;DHT22;4872;48.316;10.650;2023-06-22T16:35:35;29.90;73.80
9668;DHT22;4872;48.316;10.650;2023-06-22T16:38:02;29.40;76.30
9668;DHT22;4872;48.316;10.650;2023-06-22T16:40:29;29.10;78.80
9668;DHT22;4872;48.316;10.650;2023-06-22T16:42:55;29.00;79.90
9668;DHT22;4872;48.316;10.650;2023-06-22T16:45:23;29.00;77.90
9668;DHT22;4872;48.316;10.650;2023-06-22T16:47:51;29.00;76.50
9668;DHT22;4872;48.316;10.650;2023-06-22T16:50:18;29.20;76.90
9668;DHT22;4872;48.316;10.650;2023-06-22T16:52:45;29.60;79.00
9668;DHT22;4872;48.316;10.650;2023-06-22T16:55:13;30.20;80.00
9668;DHT22;4872;48.316;10.650;2023-06-22T16:57:40;30.50;80.50
9668;DHT22;4872;48.316;10.650;2023-06-22T17:00:08;30.60;80.50
9668;DHT22;4872;48.316;10.650;2023-06-22T17:02:43;30.90;80.40
9668;DHT22;4872;48.316;10.650;2023-06-22T17:05:11;31.40;79.50
9668;DHT22;4872;48.316;10.650;2023-06-22T17:07:39;31.90;73.40
9668;DHT22;4872;48.316;10.650;2023-06-22T17:10:12;32.30;69.40
9668;DHT22;4872;48.316;10.650;2023-06-22T17:12:39;32.80;68.20
9668;DHT22;4872;48.316;10.650;2023-06-22T17:15:09;32.90;67.00
9668;DHT22;4872;48.316;10.650;2023-06-22T17:17:39;32.80;67.40
9668;DHT22;4872;48.316;10.650;2023-06-22T17:20:07;32.60;67.40
9668;DHT22;4872;48.316;10.650;2023-06-22T17:22:34;32.40;67.50
9668;DHT22;4872;48.316;10.650;2023-06-22T17:25:04;32.40;67.20
9668;DHT22;4872;48.316;10.650;2023-06-22T17:27:33;32.20;66.30
9668;DHT22;4872;48.316;10.650;2023-06-22T17:30:05;32.10;66.90
9668;DHT22;4872;48.316;10.650;2023-06-22T17:32:32;32.10;68.20
9668;DHT22;4872;48.316;10.650;2023-06-22T17:35:00;32.10;69.20
9668;DHT22;4872;48.316;10.650;2023-06-22T17:37:32;32.30;69.70
9668;DHT22;4872;48.316;10.650;2023-06-22T17:40:00;32.80;68.90
9668;DHT22;4872;48.316;10.650;2023-06-22T17:42:28;32.80;69.10
9668;DHT22;4872;48.316;10.650;2023-06-22T17:45:00;32.70;69.70
9668;DHT22;4872;48.316;10.650;2023-06-22T17:47:28;32.80;69.50
9668;DHT22;4872;48.316;10.650;2023-06-22T17:50:05;32.80;69.60
9668;DHT22;4872;48.316;10.650;2023-06-22T17:52:32;32.50;70.00
9668;DHT22;4872;48.316;10.650;2023-06-22T17:55:00;32.00;70.70
9668;DHT22;4872;48.316;10.650;2023-06-22T17:57:35;31.50;72.00
9668;DHT22;4872;48.316;10.650;2023-06-22T18:00:04;30.90;73.00
9668;DHT22;4872;48.316;10.650;2023-06-22T18:02:36;30.50;73.70
9668;DHT22;4872;48.316;10.650;2023-06-22T18:05:06;30.30;74.40
9668;DHT22;4872;48.316;10.650;2023-06-22T18:07:33;30.10;74.40
9668;DHT22;4872;48.316;10.650;2023-06-22T18:10:02;30.00;75.40
9668;DHT22;4872;48.316;10.650;2023-06-22T18:12:29;29.70;75.60
9668;DHT22;4872;48.316;10.650;2023-06-22T18:14:56;29.60;76.50
9668;DHT22;4872;48.316;10.650;2023-06-22T18:17:24;29.40;76.50
9668;DHT22;4872;48.316;10.650;2023-06-22T18:19:51;29.20;77.00
9668;DHT22;4872;48.316;10.650;2023-06-22T18:22:19;29.00;77.90
9668;DHT22;4872;48.316;10.650;2023-06-22T18:24:47;28.80;78.00
9668;DHT22;4872;48.316;10.650;2023-06-22T18:27:15;28.70;78.50
9668;DHT22;4872;48.316;10.650;2023-06-22T18:29:42;28.60;78.20
9668;DHT22;4872;48.316;10.650;2023-06-22T18:32:10;28.40;78.30
9668;DHT22;4872;48.316;10.650;2023-06-22T18:34:38;28.30;78.50
9668;DHT22;4872;48.316;10.650;2023-06-22T18:37:07;28.20;78.50
9668;DHT22;4872;48.316;10.650;2023-06-22T18:39:38;28.10;78.60
9668;DHT22;4872;48.316;10.650;2023-06-22T18:42:08;28.00;78.70
9668;DHT22;4872;48.316;10.650;2023-06-22T18:44:36;27.90;78.30
9668;DHT22;4872;48.316;10.650;2023-06-22T18:47:07;27.80;78.20
9668;DHT22;4872;48.316;10.650;2023-06-22T18:49:45;27.90;78.30
9668;DHT22;4872;48.316;10.650;2023-06-22T18:52:15;27.80;77.80
9668;DHT22;4872;48.316;10.650;2023-06-22T18:54:45;27.80;77.40
9668;DHT22;4872;48.316;10.650;2023-06-22T18:57:14;27.70;77.70
9668;DHT22;4872;48.316;10.650;2023-06-22T18:59:49;27.60;77.10
9668;DHT22;4872;48.316;10.650;2023-06-22T19:02:35;27.60;75.20
9668;DHT22;4872;48.316;10.650;2023-06-22T19:05:06;27.50;75.10
9668;DHT22;4872;48.316;10.650;2023-06-22T19:07:57;27.40;72.70
9668;DHT22;4872;48.316;10.650;2023-06-22T19:10:27;27.40;72.10
9668;DHT22;4872;48.316;10.650;2023-06-22T19:12:56;27.30;71.50
9668;DHT22;4872;48.316;10.650;2023-06-22T19:15:30;27.30;69.80
9668;DHT22;4872;48.316;10.650;2023-06-22T19:17:59;27.10;68.30
9668;DHT22;4872;48.316;10.650;2023-06-22T19:20:31;26.50;70.50
9668;DHT22;4872;48.316;10.650;2023-06-22T19:22:58;25.70;73.80
9668;DHT22;4872;48.316;10.650;2023-06-22T19:25:28;25.10;76.70
9668;DHT22;4872;48.316;10.650;2023-06-22T19:27:59;24.40;77.20
9668;DHT22;4872;48.316;10.650;2023-06-22T19:30:27;24.10;80.80
9668;DHT22;4872;48.316;10.650;2023-06-22T19:32:55;23.80;85.20
9668;DHT22;4872;48.316;10.650;2023-06-22T19:35:22;23.80;87.90
9668;DHT22;4872;48.316;10.650;2023-06-22T19:37:49;23.80;89.60
9668;DHT22;4872;48.316;10.650;2023-06-22T19:40:16;23.70;88.40
9668;DHT22;4872;48.316;10.650;2023-06-22T19:42:44;23.50;89.30
9668;DHT22;4872;48.316;10.650;2023-06-22T19:45:16;23.40;89.70
9668;DHT22;4872;48.316;10.650;2023-06-22T19:47:43;23.20;89.60
9668;DHT22;4872;48.316;10.650;2023-06-22T19:50:11;23.10;90.40
9668;DHT22;4872;48.316;10.650;2023-06-22T19:52:41;22.30;91.60
9668;DHT22;4872;48.316;10.650;2023-06-22T19:55:09;21.90;93.60